sensor_id;sensor_type;location;lat;lon;timestamp;P1;durP1;ratioP1;P2;durP2;ratioP2
23567;SDS011;11962;50.838;4.430;2024-03-23T00:55:40;20.63;;;4.00;;
23567;SDS011;11962;50.838;4.430;2024-03-23T00:58:06;16.10;;;3.55;;
23567;SDS011;11962;50.838;4.430;2024-03-23T01:00:32;10.48;;;3.60;;
23567;SDS011;11962;50.838;4.430;2024-03-23T01:02:57;12.18;;;3.72;;
23567;SDS011;11962;50.838;4.430;2024-03-23T01:05:23;20.45;;;3.72;;
23567;SDS011;11962;50.838;4.430;2024-03-23T01:07:49;12.43;;;3.75;;
23567;SDS011;11962;50.838;4.430;2024-03-23T01:10:14;12.20;;;4.10;;
23567;SDS011;11962;50.838;4.430;2024-03-23T01:12:40;17.90;;;4.18;;
23567;SDS011;11962;50.838;4.430;2024-03-23T01:15:06;11.15;;;3.10;;
23567;SDS011;11962;50.838;4.430;2024-03-23T01:17:32;14.23;;;4.10;;
23567;SDS011;11962;50.838;4.430;2024-03-23T01:19:57;9.23;;;3.53;;
23567;SDS011;11962;50.838;4.430;2024-03-23T01:22:23;12.80;;;3.15;;
23567;SDS011;11962;50.838;4.430;2024-03-23T01:24:49;12.50;;;3.10;;
23567;SDS011;11962;50.838;4.430;2024-03-23T01:27:15;9.18;;;2.90;;
23567;SDS011;11962;50.838;4.430;2024-03-23T01:29:40;12.82;;;3.50;;
23567;SDS011;11962;50.838;4.430;2024-03-23T01:32:06;14.52;;;3.70;;
23567;SDS011;11962;50.838;4.430;2024-03-23T01:34:32;12.13;;;3.65;;
23567;SDS011;11962;50.838;4.430;2024-03-23T01:36:58;15.18;;;4.25;;
23567;SDS011;11962;50.838;4.430;2024-03-23T01:39:23;14.77;;;3.97;;
23567;SDS011;11962;50.838;4.430;2024-03-23T01:41:49;13.55;;;3.80;;
23567;SDS011;11962;50.838;4.430;2024-03-23T01:44:16;10.80;;;4.05;;
23567;SDS011;11962;50.838;4.430;2024-03-23T01:46:42;11.43;;;3.80;;
23567;SDS011;11962;50.838;4.430;2024-03-23T01:49:09;10.77;;;3.97;;
23567;SDS011;11962;50.838;4.430;2024-03-23T01:51:35;10.48;;;4.10;;
23567;SDS011;11962;50.838;4.430;2024-03-23T01:54:02;14.10;;;4.55;;
23567;SDS011;11962;50.838;4.430;2024-03-23T01:56:32;16.15;;;4.85;;
23567;SDS011;11962;50.838;4.430;2024-03-23T01:59:01;13.95;;;4.97;;
23567;SDS011;11962;50.838;4.430;2024-03-23T02:01:30;13.88;;;4.82;;
23567;SDS011;11962;50.838;4.430;2024-03-23T02:03:57;13.30;;;4.93;;
23567;SDS011;11962;50.838;4.430;2024-03-23T02:06:24;14.63;;;5.40;;
23567;SDS011;11962;50.838;4.430;2024-03-23T02:08:50;13.63;;;4.90;;
23567;SDS011;11962;50.838;4.430;2024-03-23T02:11:16;18.02;;;5.65;;
23567;SDS011;11962;50.838;4.430;2024-03-23T02:13:42;13.88;;;5.43;;
23567;SDS011;11962;50.838;4.430;2024-03-23T02:16:07;17.00;;;6.55;;
23567;SDS011;11962;50.838;4.430;2024-03-23T02:18:33;14.05;;;6.03;;
23567;SDS011;11962;50.838;4.430;2024-03-23T02:20:59;16.08;;;6.03;;
23567;SDS011;11962;50.838;4.430;2024-03-23T02:23:25;15.82;;;5.50;;
23567;SDS011;11962;50.838;4.430;2024-03-23T02:25:51;16.50;;;5.70;;
23567;SDS011;11962;50.838;4.430;2024-03-23T02:28:18;16.77;;;6.35;;
23567;SDS011;11962;50.838;4.430;2024-03-23T02:30:44;14.00;;;6.70;;
23567;SDS011;11962;50.838;4.430;2024-03-23T02:33:10;18.35;;;6.63;;
23567;SDS011;11962;50.838;4.430;2024-03-23T02:35:36;21.65;;;7.22;;
23567;SDS011;11962;50.838;4.430;2024-03-23T02:38:02;14.85;;;7.20;;
23567;SDS011;11962;50.838;4.430;2024-03-23T02:40:28;22.55;;;7.15;;
23567;SDS011;11962;50.838;4.430;2024-03-23T02:42:54;24.20;;;6.97;;
23567;SDS011;11962;50.838;4.430;2024-03-23T02:45:20;21.02;;;6.97;;
23567;SDS011;11962;50.838;4.430;2024-03-23T02:47:45;21.27;;;7.68;;
23567;SDS011;11962;50.838;4.430;2024-03-23T02:50:11;19.05;;;7.35;;
23567;SDS011;11962;50.838;4.430;2024-03-23T02:52:37;18.23;;;7.20;;
23567;SDS011;11962;50.838;4.430;2024-03-23T02:55:03;18.02;;;6.97;;
23567;SDS011;11962;50.838;4.430;2024-03-23T02:57:29;20.67;;;7.03;;
23567;SDS011;11962;50.838;4.430;2024-03-23T02:59:55;20.92;;;7.47;;
23567;SDS011;11962;50.838;4.430;2024-03-23T03:02:21;24.73;;;6.85;;
23567;SDS011;11962;50.838;4.430;2024-03-23T03:04:47;15.90;;;7.05;;
23567;SDS011;11962;50.838;4.430;2024-03-23T03:07:13;22.08;;;7.70;;
23567;SDS011;11962;50.838;4.430;2024-03-23T03:09:39;23.42;;;6.90;;
23567;SDS011;11962;50.838;4.430;2024-03-23T03:12:05;24.52;;;8.00;;
23567;SDS011;11962;50.838;4.430;2024-03-23T03:14:31;17.92;;;7.88;;
23567;SDS011;11962;50.838;4.430;2024-03-23T03:16:57;22.83;;;7.45;;
23567;SDS011;11962;50.838;4.430;2024-03-23T03:19:23;24.15;;;7.28;;
23567;SDS011;11962;50.838;4.430;2024-03-23T03:21:49;21.55;;;7.50;;
23567;SDS011;11962;50.838;4.430;2024-03-23T03:24:14;19.75;;;7.28;;
23567;SDS011;11962;50.838;4.430;2024-03-23T03:26:40;17.42;;;7.60;;
23567;SDS011;11962;50.838;4.430;2024-03-23T03:29:06;23.73;;;7.50;;
23567;SDS011;11962;50.838;4.430;2024-03-23T03:31:31;26.38;;;7.72;;
23567;SDS011;11962;50.838;4.430;2024-03-23T03:33:57;22.15;;;7.60;;
23567;SDS011;11962;50.838;4.430;2024-03-23T03:36:23;23.50;;;8.00;;
23567;SDS011;11962;50.838;4.430;2024-03-23T03:38:48;19.58;;;7.55;;
23567;SDS011;11962;50.838;4.430;2024-03-23T03:41:14;18.58;;;7.90;;
23567;SDS011;11962;50.838;4.430;2024-03-23T03:43:40;21.52;;;8.32;;
23567;SDS011;11962;50.838;4.430;2024-03-23T03:46:06;21.38;;;7.63;;
23567;SDS011;11962;50.838;4.430;2024-03-23T03:48:33;25.90;;;8.82;;
23567;SDS011;11962;50.838;4.430;2024-03-23T03:50:59;19.73;;;8.13;;
23567;SDS011;11962;50.838;4.430;2024-03-23T03:53:25;23.58;;;8.68;;
23567;SDS011;11962;50.838;4.430;2024-03-23T03:55:51;22.02;;;8.55;;
23567;SDS011;11962;50.838;4.430;2024-03-23T03:58:17;19.17;;;8.52;;
23567;SDS011;11962;50.838;4.430;2024-03-23T04:00:43;25.10;;;8.90;;
23567;SDS011;11962;50.838;4.430;2024-03-23T04:03:08;26.65;;;10.05;;
23567;SDS011;11962;50.838;4.430;2024-03-23T04:05:34;22.10;;;8.93;;
23567;SDS011;11962;50.838;4.430;2024-03-23T04:08:00;25.70;;;10.25;;
23567;SDS011;11962;50.838;4.430;2024-03-23T04:10:26;27.55;;;9.68;;
23567;SDS011;11962;50.838;4.430;2024-03-23T04:12:51;27.98;;;10.60;;
23567;SDS011;11962;50.838;4.430;2024-03-23T04:15:18;22.48;;;9.88;;
23567;SDS011;11962;50.838;4.430;2024-03-23T04:17:44;21.83;;;9.30;;
23567;SDS011;11962;50.838;4.430;2024-03-23T04:20:10;22.70;;;9.55;;
23567;SDS011;11962;50.838;4.430;2024-03-23T04:22:38;20.65;;;8.90;;
23567;SDS011;11962;50.838;4.430;2024-03-23T04:25:05;19.35;;;8.50;;
23567;SDS011;11962;50.838;4.430;2024-03-23T04:27:38;17.65;;;8.27;;
23567;SDS011;11962;50.838;4.430;2024-03-23T04:30:05;23.52;;;8.15;;
23567;SDS011;11962;50.838;4.430;2024-03-23T04:32:38;24.33;;;8.13;;
23567;SDS011;11962;50.838;4.430;2024-03-23T04:35:05;24.35;;;7.40;;
23567;SDS011;11962;50.838;4.430;2024-03-23T04:37:32;16.98;;;6.70;;
23567;SDS011;11962;50.838;4.430;2024-03-23T04:39:59;17.77;;;7.05;;
23567;SDS011;11962;50.838;4.430;2024-03-23T04:42:29;20.85;;;6.47;;
23567;SDS011;11962;50.838;4.430;2024-03-23T04:44:55;18.05;;;6.60;;
23567;SDS011;11962;50.838;4.430;2024-03-23T04:47:20;17.85;;;5.95;;
23567;SDS011;11962;50.838;4.430;2024-03-23T04:49:46;19.38;;;5.93;;
23567;SDS011;11962;50.838;4.430;2024-03-23T04:52:12;14.55;;;5.85;;
23567;SDS011;11962;50.838;4.430;2024-03-23T04:54:38;13.90;;;5.68;;
23567;SDS011;11962;50.838;4.430;2024-03-23T04:57:05;18.75;;;5.72;;
23567;SDS011;11962;50.838;4.430;2024-03-23T04:59:31;20.50;;;6.65;;
23567;SDS011;11962;50.838;4.430;2024-03-23T05:01:57;17.23;;;6.45;;
23567;SDS011;11962;50.838;4.430;2024-03-23T05:04:23;20.80;;;6.50;;
23567;SDS011;11962;50.838;4.430;2024-03-23T05:06:48;13.13;;;6.25;;
23567;SDS011;11962;50.838;4.430;2024-03-23T05:09:14;19.80;;;6.97;;
23567;SDS011;11962;50.838;4.430;2024-03-23T05:11:41;13.23;;;6.13;;
23567;SDS011;11962;50.838;4.430;2024-03-23T05:14:07;17.52;;;6.13;;
23567;SDS011;11962;50.838;4.430;2024-03-23T05:16:33;15.75;;;6.20;;
23567;SDS011;11962;50.838;4.430;2024-03-23T05:18:58;19.35;;;6.50;;
23567;SDS011;11962;50.838;4.430;2024-03-23T05:21:24;12.75;;;6.43;;
23567;SDS011;11962;50.838;4.430;2024-03-23T05:23:50;17.15;;;6.68;;
23567;SDS011;11962;50.838;4.430;2024-03-23T05:26:16;21.02;;;6.97;;
23567;SDS011;11962;50.838;4.430;2024-03-23T05:28:42;20.15;;;7.05;;
23567;SDS011;11962;50.838;4.430;2024-03-23T05:31:08;17.85;;;7.00;;
23567;SDS011;11962;50.838;4.430;2024-03-23T05:33:35;19.60;;;6.00;;
23567;SDS011;11962;50.838;4.430;2024-03-23T05:36:03;12.90;;;5.80;;
23567;SDS011;11962;50.838;4.430;2024-03-23T05:38:29;15.77;;;6.80;;
23567;SDS011;11962;50.838;4.430;2024-03-23T05:40:58;16.85;;;6.45;;
23567;SDS011;11962;50.838;4.430;2024-03-23T05:43:26;23.10;;;6.18;;
23567;SDS011;11962;50.838;4.430;2024-03-23T05:45:58;17.20;;;5.72;;
23567;SDS011;11962;50.838;4.430;2024-03-23T05:48:25;18.13;;;5.70;;
23567;SDS011;11962;50.838;4.430;2024-03-23T05:50:51;14.57;;;5.28;;
23567;SDS011;11962;50.838;4.430;2024-03-23T05:53:17;18.55;;;5.72;;
23567;SDS011;11962;50.838;4.430;2024-03-23T05:55:47;14.60;;;5.18;;
23567;SDS011;11962;50.838;4.430;2024-03-23T05:58:14;19.38;;;5.47;;
23567;SDS011;11962;50.838;4.430;2024-03-23T06:00:40;10.63;;;4.40;;
23567;SDS011;11962;50.838;4.430;2024-03-23T06:03:07;16.73;;;5.13;;
23567;SDS011;11962;50.838;4.430;2024-03-23T06:05:33;19.23;;;4.88;;
23567;SDS011;11962;50.838;4.430;2024-03-23T06:07:59;18.38;;;4.55;;
23567;SDS011;11962;50.838;4.430;2024-03-23T06:10:24;22.30;;;4.93;;
23567;SDS011;11962;50.838;4.430;2024-03-23T06:12:50;15.30;;;3.80;;
23567;SDS011;11962;50.838;4.430;2024-03-23T06:15:17;14.55;;;4.78;;
23567;SDS011;11962;50.838;4.430;2024-03-23T06:17:44;11.15;;;3.80;;
23567;SDS011;11962;50.838;4.430;2024-03-23T06:20:10;12.20;;;3.38;;
23567;SDS011;11962;50.838;4.430;2024-03-23T06:22:36;15.70;;;3.40;;
23567;SDS011;11962;50.838;4.430;2024-03-23T06:25:02;15.40;;;3.40;;
23567;SDS011;11962;50.838;4.430;2024-03-23T06:27:28;12.52;;;3.25;;
23567;SDS011;11962;50.838;4.430;2024-03-23T06:29:54;12.20;;;2.50;;
23567;SDS011;11962;50.838;4.430;2024-03-23T06:32:20;12.45;;;2.83;;
23567;SDS011;11962;50.838;4.430;2024-03-23T06:34:46;15.40;;;3.38;;
23567;SDS011;11962;50.838;4.430;2024-03-23T06:37:12;16.67;;;3.25;;
23567;SDS011;11962;50.838;4.430;2024-03-23T06:39:37;17.23;;;3.05;;
23567;SDS011;11962;50.838;4.430;2024-03-23T06:42:04;12.23;;;3.00;;
23567;SDS011;11962;50.838;4.430;2024-03-23T06:44:30;18.38;;;3.58;;
23567;SDS011;11962;50.838;4.430;2024-03-23T06:46:56;16.83;;;2.80;;
23567;SDS011;11962;50.838;4.430;2024-03-23T06:49:22;8.98;;;2.42;;
23567;SDS011;11962;50.838;4.430;2024-03-23T06:51:49;13.90;;;3.05;;
23567;SDS011;11962;50.838;4.430;2024-03-23T06:54:15;7.03;;;2.38;;
23567;SDS011;11962;50.838;4.430;2024-03-23T06:56:42;6.78;;;2.63;;
23567;SDS011;11962;50.838;4.430;2024-03-23T06:59:09;15.57;;;3.00;;
23567;SDS011;11962;50.838;4.430;2024-03-23T07:01:35;9.95;;;2.83;;
23567;SDS011;11962;50.838;4.430;2024-03-23T07:04:00;12.32;;;3.13;;
23567;SDS011;11962;50.838;4.430;2024-03-23T07:06:26;13.77;;;3.50;;
23567;SDS011;11962;50.838;4.430;2024-03-23T07:08:52;13.82;;;2.85;;
23567;SDS011;11962;50.838;4.430;2024-03-23T07:11:19;14.23;;;3.28;;
23567;SDS011;11962;50.838;4.430;2024-03-23T07:13:45;14.23;;;2.80;;
23567;SDS011;11962;50.838;4.430;2024-03-23T07:16:12;6.18;;;2.17;;
23567;SDS011;11962;50.838;4.430;2024-03-23T07:18:38;8.65;;;2.13;;
23567;SDS011;11962;50.838;4.430;2024-03-23T07:21:04;7.88;;;2.03;;
23567;SDS011;11962;50.838;4.430;2024-03-23T07:23:31;11.50;;;2.30;;
23567;SDS011;11962;50.838;4.430;2024-03-23T07:26:01;13.15;;;2.60;;
23567;SDS011;11962;50.838;4.430;2024-03-23T07:28:29;7.18;;;2.20;;
23567;SDS011;11962;50.838;4.430;2024-03-23T07:31:07;11.55;;;2.78;;
23567;SDS011;11962;50.838;4.430;2024-03-23T07:33:35;10.80;;;2.70;;
23567;SDS011;11962;50.838;4.430;2024-03-23T07:36:10;14.18;;;3.00;;
23567;SDS011;11962;50.838;4.430;2024-03-23T07:38:36;14.63;;;2.95;;
23567;SDS011;11962;50.838;4.430;2024-03-23T07:41:08;23.52;;;3.72;;
23567;SDS011;11962;50.838;4.430;2024-03-23T07:43:36;15.35;;;3.25;;
23567;SDS011;11962;50.838;4.430;2024-03-23T07:46:03;11.38;;;2.90;;
23567;SDS011;11962;50.838;4.430;2024-03-23T07:48:29;15.10;;;3.00;;
23567;SDS011;11962;50.838;4.430;2024-03-23T07:51:08;11.75;;;2.72;;
23567;SDS011;11962;50.838;4.430;2024-03-23T07:53:35;12.63;;;3.25;;
23567;SDS011;11962;50.838;4.430;2024-03-23T07:56:08;10.75;;;2.88;;
23567;SDS011;11962;50.838;4.430;2024-03-23T07:58:37;12.52;;;2.72;;
23567;SDS011;11962;50.838;4.430;2024-03-23T08:01:07;8.98;;;2.60;;
23567;SDS011;11962;50.838;4.430;2024-03-23T08:03:35;11.77;;;2.70;;
23567;SDS011;11962;50.838;4.430;2024-03-23T08:08:34;11.40;;;2.50;;
23567;SDS011;11962;50.838;4.430;2024-03-23T08:11:00;8.30;;;2.20;;
23567;SDS011;11962;50.838;4.430;2024-03-23T08:13:26;13.23;;;2.70;;
23567;SDS011;11962;50.838;4.430;2024-03-23T08:15:55;8.63;;;2.80;;
23567;SDS011;11962;50.838;4.430;2024-03-23T08:18:22;10.82;;;2.63;;
23567;SDS011;11962;50.838;4.430;2024-03-23T08:20:55;11.98;;;2.88;;
23567;SDS011;11962;50.838;4.430;2024-03-23T08:23:22;9.77;;;2.70;;
23567;SDS011;11962;50.838;4.430;2024-03-23T08:25:49;11.52;;;2.90;;
23567;SDS011;11962;50.838;4.430;2024-03-23T08:28:14;10.52;;;2.63;;
23567;SDS011;11962;50.838;4.430;2024-03-23T08:30:40;10.65;;;2.42;;
23567;SDS011;11962;50.838;4.430;2024-03-23T08:33:06;9.00;;;2.67;;
23567;SDS011;11962;50.838;4.430;2024-03-23T08:35:32;9.95;;;2.53;;
23567;SDS011;11962;50.838;4.430;2024-03-23T08:37:59;9.57;;;2.53;;
23567;SDS011;11962;50.838;4.430;2024-03-23T08:40:25;11.05;;;2.95;;
23567;SDS011;11962;50.838;4.430;2024-03-23T08:42:51;10.95;;;3.15;;
23567;SDS011;11962;50.838;4.430;2024-03-23T08:45:16;12.48;;;3.00;;
23567;SDS011;11962;50.838;4.430;2024-03-23T08:47:42;12.85;;;2.95;;
23567;SDS011;11962;50.838;4.430;2024-03-23T08:50:08;10.45;;;2.35;;
23567;SDS011;11962;50.838;4.430;2024-03-23T08:52:34;9.07;;;2.60;;
23567;SDS011;11962;50.838;4.430;2024-03-23T08:55:00;14.77;;;2.72;;
23567;SDS011;11962;50.838;4.430;2024-03-23T08:57:26;17.90;;;3.25;;
23567;SDS011;11962;50.838;4.430;2024-03-23T08:59:52;11.02;;;2.92;;
23567;SDS011;11962;50.838;4.430;2024-03-23T09:02:17;12.32;;;3.25;;
23567;SDS011;11962;50.838;4.430;2024-03-23T09:04:44;9.50;;;2.35;;
23567;SDS011;11962;50.838;4.430;2024-03-23T09:07:10;10.82;;;2.33;;
23567;SDS011;11962;50.838;4.430;2024-03-23T09:09:37;7.82;;;2.60;;
23567;SDS011;11962;50.838;4.430;2024-03-23T09:14:30;7.93;;;2.35;;
23567;SDS011;11962;50.838;4.430;2024-03-23T09:16:55;12.90;;;2.83;;
23567;SDS011;11962;50.838;4.430;2024-03-23T09:19:21;8.45;;;1.92;;
23567;SDS011;11962;50.838;4.430;2024-03-23T09:21:47;9.88;;;2.20;;
23567;SDS011;11962;50.838;4.430;2024-03-23T09:24:12;7.70;;;2.13;;
23567;SDS011;11962;50.838;4.430;2024-03-23T09:26:38;9.93;;;2.60;;
23567;SDS011;11962;50.838;4.430;2024-03-23T09:29:04;10.63;;;2.17;;
23567;SDS011;11962;50.838;4.430;2024-03-23T09:31:29;7.25;;;2.30;;
23567;SDS011;11962;50.838;4.430;2024-03-23T09:33:56;8.90;;;2.53;;
23567;SDS011;11962;50.838;4.430;2024-03-23T09:36:23;9.55;;;2.17;;
23567;SDS011;11962;50.838;4.430;2024-03-23T09:38:48;9.23;;;2.22;;
23567;SDS011;11962;50.838;4.430;2024-03-23T09:41:14;9.00;;;2.10;;
23567;SDS011;11962;50.838;4.430;2024-03-23T09:43:40;11.10;;;2.30;;
23567;SDS011;11962;50.838;4.430;2024-03-23T09:46:06;6.82;;;2.13;;
23567;SDS011;11962;50.838;4.430;2024-03-23T09:48:33;9.20;;;2.30;;
23567;SDS011;11962;50.838;4.430;2024-03-23T09:50:59;8.45;;;1.73;;
23567;SDS011;11962;50.838;4.430;2024-03-23T09:53:24;8.13;;;1.95;;
23567;SDS011;11962;50.838;4.430;2024-03-23T09:55:50;8.77;;;2.13;;
23567;SDS011;11962;50.838;4.430;2024-03-23T09:58:16;5.60;;;1.70;;
23567;SDS011;11962;50.838;4.430;2024-03-23T10:00:43;5.80;;;1.90;;
23567;SDS011;11962;50.838;4.430;2024-03-23T10:03:09;7.53;;;1.88;;
23567;SDS011;11962;50.838;4.430;2024-03-23T10:05:36;7.82;;;2.15;;
23567;SDS011;11962;50.838;4.430;2024-03-23T10:08:17;7.38;;;2.10;;
23567;SDS011;11962;50.838;4.430;2024-03-23T10:10:44;7.93;;;2.08;;
23567;SDS011;11962;50.838;4.430;2024-03-23T10:13:11;8.00;;;1.98;;
23567;SDS011;11962;50.838;4.430;2024-03-23T10:15:54;6.30;;;2.03;;
23567;SDS011;11962;50.838;4.430;2024-03-23T10:18:24;10.52;;;2.03;;
23567;SDS011;11962;50.838;4.430;2024-03-23T10:23:33;7.75;;;1.80;;
23567;SDS011;11962;50.838;4.430;2024-03-23T10:26:12;9.93;;;2.00;;
23567;SDS011;11962;50.838;4.430;2024-03-23T10:31:18;6.32;;;1.60;;
23567;SDS011;11962;50.838;4.430;2024-03-23T10:33:47;8.32;;;1.95;;
23567;SDS011;11962;50.838;4.430;2024-03-23T10:36:13;9.05;;;1.70;;
23567;SDS011;11962;50.838;4.430;2024-03-23T10:38:40;5.05;;;1.73;;
23567;SDS011;11962;50.838;4.430;2024-03-23T10:41:08;7.18;;;2.00;;
23567;SDS011;11962;50.838;4.430;2024-03-23T10:43:38;6.05;;;1.83;;
23567;SDS011;11962;50.838;4.430;2024-03-23T10:46:04;5.50;;;1.77;;
23567;SDS011;11962;50.838;4.430;2024-03-23T10:48:31;6.35;;;1.70;;
23567;SDS011;11962;50.838;4.430;2024-03-23T10:50:57;10.13;;;1.70;;
23567;SDS011;11962;50.838;4.430;2024-03-23T10:53:26;8.70;;;1.80;;
23567;SDS011;11962;50.838;4.430;2024-03-23T10:55:52;5.47;;;1.65;;
23567;SDS011;11962;50.838;4.430;2024-03-23T10:58:42;8.88;;;1.73;;
23567;SDS011;11962;50.838;4.430;2024-03-23T11:01:11;7.25;;;1.67;;
23567;SDS011;11962;50.838;4.430;2024-03-23T11:03:50;5.38;;;1.45;;
23567;SDS011;11962;50.838;4.430;2024-03-23T11:06:59;4.85;;;1.30;;
23567;SDS011;11962;50.838;4.430;2024-03-23T11:14:54;5.05;;;1.42;;
23567;SDS011;11962;50.838;4.430;2024-03-23T11:17:28;6.00;;;1.30;;
23567;SDS011;11962;50.838;4.430;2024-03-23T11:20:03;5.85;;;1.70;;
23567;SDS011;11962;50.838;4.430;2024-03-23T11:22:39;3.67;;;1.50;;
23567;SDS011;11962;50.838;4.430;2024-03-23T11:25:24;7.18;;;1.55;;
23567;SDS011;11962;50.838;4.430;2024-03-23T11:27:51;5.80;;;1.20;;
23567;SDS011;11962;50.838;4.430;2024-03-23T11:30:19;3.70;;;1.13;;
23567;SDS011;11962;50.838;4.430;2024-03-23T11:32:49;6.32;;;1.60;;
23567;SDS011;11962;50.838;4.430;2024-03-23T11:35:25;6.70;;;1.67;;
23567;SDS011;11962;50.838;4.430;2024-03-23T11:40:47;6.57;;;1.23;;
23567;SDS011;11962;50.838;4.430;2024-03-23T11:43:17;6.45;;;1.83;;
23567;SDS011;11962;50.838;4.430;2024-03-23T11:45:47;6.88;;;1.52;;
23567;SDS011;11962;50.838;4.430;2024-03-23T11:48:18;6.75;;;1.73;;
23567;SDS011;11962;50.838;4.430;2024-03-23T11:50:46;5.75;;;1.50;;
23567;SDS011;11962;50.838;4.430;2024-03-23T11:53:20;4.30;;;1.40;;
23567;SDS011;11962;50.838;4.430;2024-03-23T11:58:13;6.38;;;1.50;;
23567;SDS011;11962;50.838;4.430;2024-03-23T12:00:39;4.35;;;1.30;;
23567;SDS011;11962;50.838;4.430;2024-03-23T12:03:05;5.00;;;1.35;;
23567;SDS011;11962;50.838;4.430;2024-03-23T12:05:32;7.55;;;1.80;;
23567;SDS011;11962;50.838;4.430;2024-03-23T12:10:51;7.18;;;1.40;;
23567;SDS011;11962;50.838;4.430;2024-03-23T12:13:18;5.00;;;1.88;;
23567;SDS011;11962;50.838;4.430;2024-03-23T12:15:48;11.00;;;1.80;;
23567;SDS011;11962;50.838;4.430;2024-03-23T12:18:16;5.38;;;1.42;;
23567;SDS011;11962;50.838;4.430;2024-03-23T12:20:42;6.15;;;1.52;;
23567;SDS011;11962;50.838;4.430;2024-03-23T12:23:08;7.32;;;1.40;;
23567;SDS011;11962;50.838;4.430;2024-03-23T12:25:36;5.35;;;1.38;;
23567;SDS011;11962;50.838;4.430;2024-03-23T12:28:06;5.10;;;1.48;;
23567;SDS011;11962;50.838;4.430;2024-03-23T12:30:33;5.00;;;1.45;;
23567;SDS011;11962;50.838;4.430;2024-03-23T12:33:04;3.15;;;0.90;;
23567;SDS011;11962;50.838;4.430;2024-03-23T12:35:30;2.92;;;0.90;;
23567;SDS011;11962;50.838;4.430;2024-03-23T12:37:56;4.45;;;1.08;;
23567;SDS011;11962;50.838;4.430;2024-03-23T12:40:22;9.77;;;1.40;;
23567;SDS011;11962;50.838;4.430;2024-03-23T12:42:47;6.60;;;1.40;;
23567;SDS011;11962;50.838;4.430;2024-03-23T12:45:13;6.63;;;1.63;;
23567;SDS011;11962;50.838;4.430;2024-03-23T12:47:39;3.10;;;1.13;;
23567;SDS011;11962;50.838;4.430;2024-03-23T12:50:05;6.45;;;1.60;;
23567;SDS011;11962;50.838;4.430;2024-03-23T12:52:32;7.15;;;1.50;;
23567;SDS011;11962;50.838;4.430;2024-03-23T12:54:58;8.00;;;1.70;;
23567;SDS011;11962;50.838;4.430;2024-03-23T12:57:24;9.10;;;1.50;;
23567;SDS011;11962;50.838;4.430;2024-03-23T12:59:51;5.43;;;1.55;;
23567;SDS011;11962;50.838;4.430;2024-03-23T13:02:21;5.55;;;1.30;;
23567;SDS011;11962;50.838;4.430;2024-03-23T13:04:50;6.13;;;1.38;;
23567;SDS011;11962;50.838;4.430;2024-03-23T13:07:19;7.68;;;1.40;;
23567;SDS011;11962;50.838;4.430;2024-03-23T13:09:46;5.13;;;0.95;;
23567;SDS011;11962;50.838;4.430;2024-03-23T13:12:14;5.05;;;0.90;;
23567;SDS011;11962;50.838;4.430;2024-03-23T13:14:40;4.00;;;1.00;;
23567;SDS011;11962;50.838;4.430;2024-03-23T13:17:06;2.33;;;0.90;;
23567;SDS011;11962;50.838;4.430;2024-03-23T13:19:32;4.97;;;1.17;;
23567;SDS011;11962;50.838;4.430;2024-03-23T13:21:59;9.73;;;1.00;;
23567;SDS011;11962;50.838;4.430;2024-03-23T13:24:25;4.38;;;1.33;;
23567;SDS011;11962;50.838;4.430;2024-03-23T13:26:52;4.95;;;1.02;;
23567;SDS011;11962;50.838;4.430;2024-03-23T13:29:19;7.63;;;1.02;;
23567;SDS011;11962;50.838;4.430;2024-03-23T13:31:46;3.20;;;0.80;;
23567;SDS011;11962;50.838;4.430;2024-03-23T13:34:12;2.58;;;0.90;;
23567;SDS011;11962;50.838;4.430;2024-03-23T13:36:41;4.22;;;1.10;;
23567;SDS011;11962;50.838;4.430;2024-03-23T13:39:08;2.67;;;0.82;;
23567;SDS011;11962;50.838;4.430;2024-03-23T13:41:43;3.10;;;1.08;;
23567;SDS011;11962;50.838;4.430;2024-03-23T13:44:13;3.78;;;1.05;;
23567;SDS011;11962;50.838;4.430;2024-03-23T13:46:40;3.40;;;1.08;;
23567;SDS011;11962;50.838;4.430;2024-03-23T13:49:08;6.70;;;0.75;;
23567;SDS011;11962;50.838;4.430;2024-03-23T13:51:59;5.35;;;1.17;;
23567;SDS011;11962;50.838;4.430;2024-03-23T13:54:28;3.80;;;0.90;;
23567;SDS011;11962;50.838;4.430;2024-03-23T13:56:54;8.63;;;1.17;;
23567;SDS011;11962;50.838;4.430;2024-03-23T13:59:21;3.00;;;1.00;;
23567;SDS011;11962;50.838;4.430;2024-03-23T14:01:50;3.33;;;1.08;;
23567;SDS011;11962;50.838;4.430;2024-03-23T14:04:17;6.43;;;1.10;;
23567;SDS011;11962;50.838;4.430;2024-03-23T14:06:44;4.70;;;1.20;;
23567;SDS011;11962;50.838;4.430;2024-03-23T14:09:13;6.60;;;1.17;;
23567;SDS011;11962;50.838;4.430;2024-03-23T14:11:40;6.82;;;1.65;;
23567;SDS011;11962;50.838;4.430;2024-03-23T14:14:08;5.30;;;1.23;;
23567;SDS011;11962;50.838;4.430;2024-03-23T14:16:34;4.22;;;1.40;;
23567;SDS011;11962;50.838;4.430;2024-03-23T14:19:00;4.78;;;1.20;;
23567;SDS011;11962;50.838;4.430;2024-03-23T14:21:26;4.85;;;1.27;;
23567;SDS011;11962;50.838;4.430;2024-03-23T14:23:52;4.32;;;1.02;;
23567;SDS011;11962;50.838;4.430;2024-03-23T14:26:18;9.32;;;1.30;;
23567;SDS011;11962;50.838;4.430;2024-03-23T14:28:45;4.18;;;1.13;;
23567;SDS011;11962;50.838;4.430;2024-03-23T14:31:11;10.00;;;1.40;;
23567;SDS011;11962;50.838;4.430;2024-03-23T14:33:37;6.82;;;1.27;;
23567;SDS011;11962;50.838;4.430;2024-03-23T14:36:06;5.78;;;1.20;;
23567;SDS011;11962;50.838;4.430;2024-03-23T14:38:32;4.50;;;1.25;;
23567;SDS011;11962;50.838;4.430;2024-03-23T14:40:58;8.35;;;1.30;;
23567;SDS011;11962;50.838;4.430;2024-03-23T14:43:25;4.80;;;1.30;;
23567;SDS011;11962;50.838;4.430;2024-03-23T14:48:36;7.30;;;1.40;;
23567;SDS011;11962;50.838;4.430;2024-03-23T14:51:02;3.85;;;1.30;;
23567;SDS011;11962;50.838;4.430;2024-03-23T14:53:33;6.35;;;1.60;;
23567;SDS011;11962;50.838;4.430;2024-03-23T14:56:00;5.75;;;1.13;;
23567;SDS011;11962;50.838;4.430;2024-03-23T14:58:27;6.38;;;1.25;;
23567;SDS011;11962;50.838;4.430;2024-03-23T15:00:53;6.63;;;1.30;;
23567;SDS011;11962;50.838;4.430;2024-03-23T15:03:24;4.40;;;1.17;;
23567;SDS011;11962;50.838;4.430;2024-03-23T15:05:52;3.90;;;1.20;;
23567;SDS011;11962;50.838;4.430;2024-03-23T15:08:21;4.65;;;1.38;;
23567;SDS011;11962;50.838;4.430;2024-03-23T15:10:47;5.28;;;1.27;;
23567;SDS011;11962;50.838;4.430;2024-03-23T15:13:13;7.93;;;1.40;;
23567;SDS011;11962;50.838;4.430;2024-03-23T15:15:40;6.18;;;1.38;;
23567;SDS011;11962;50.838;4.430;2024-03-23T15:18:08;6.70;;;1.10;;
23567;SDS011;11962;50.838;4.430;2024-03-23T15:20:35;6.93;;;1.30;;
23567;SDS011;11962;50.838;4.430;2024-03-23T15:23:02;5.80;;;1.67;;
23567;SDS011;11962;50.838;4.430;2024-03-23T15:25:28;6.35;;;1.75;;
23567;SDS011;11962;50.838;4.430;2024-03-23T15:27:53;5.90;;;1.42;;
23567;SDS011;11962;50.838;4.430;2024-03-23T15:30:20;7.25;;;1.83;;
23567;SDS011;11962;50.838;4.430;2024-03-23T15:32:45;8.75;;;1.40;;
23567;SDS011;11962;50.838;4.430;2024-03-23T15:35:12;5.88;;;1.50;;
23567;SDS011;11962;50.838;4.430;2024-03-23T15:37:37;9.55;;;1.63;;
23567;SDS011;11962;50.838;4.430;2024-03-23T15:40:05;4.30;;;1.42;;
23567;SDS011;11962;50.838;4.430;2024-03-23T15:42:31;8.40;;;1.60;;
23567;SDS011;11962;50.838;4.430;2024-03-23T15:44:57;8.73;;;1.40;;
23567;SDS011;11962;50.838;4.430;2024-03-23T15:47:23;8.18;;;1.23;;
23567;SDS011;11962;50.838;4.430;2024-03-23T15:49:49;5.15;;;1.80;;
23567;SDS011;11962;50.838;4.430;2024-03-23T15:52:15;6.15;;;1.40;;
23567;SDS011;11962;50.838;4.430;2024-03-23T15:54:42;7.78;;;1.90;;
23567;SDS011;11962;50.838;4.430;2024-03-23T15:57:08;8.88;;;1.75;;
23567;SDS011;11962;50.838;4.430;2024-03-23T15:59:34;7.15;;;2.08;;
23567;SDS011;11962;50.838;4.430;2024-03-23T16:02:01;5.30;;;1.60;;